Terminal Aerodrome Forecast
Issued by NWS Albany, NY

Home | Current Version | Previous Version | Text Only | Print | Product List | Glossary On
Versions: 1 2 3 4 5 6 7 8 9 10 11 12 13 14 15 16 17 18 19 20 21 22
000
FTUS41 KALY 280928 AAA
TAFGFL
TAF AMD
KGFL 280928Z 2809/2906 00000KT P6SM FEW003
      TEMPO 2810/2812 4SM -SHRA BR BKN200
     FM281200 VRB03KT P6SM SCT050
     FM290100 00000KT P6SM SKC=

USA.gov is the U.S. government's official web portal to all federal, state and local government web resources and services.